createdAt,value
2022-09-06T00:01:59.855Z,18.20
2022-09-06T00:04:27.771Z,18.10
2022-09-06T00:06:55.603Z,18.10
2022-09-06T00:09:23.432Z,18.10
2022-09-06T00:11:51.272Z,18.10
2022-09-06T00:14:20.460Z,18.10
2022-09-06T00:16:48.282Z,18.10
2022-09-06T00:19:16.114Z,18.10
2022-09-06T00:21:44.022Z,18.10
2022-09-06T00:24:12.224Z,18.50
2022-09-06T00:26:40.077Z,18.00
2022-09-06T00:29:07.974Z,18.00
2022-09-06T00:31:37.248Z,18.00
2022-09-06T00:34:05.213Z,18.00
2022-09-06T00:36:33.183Z,18.00
2022-09-06T00:39:01.086Z,18.10
2022-09-06T00:41:29.099Z,18.00
2022-09-06T00:43:57.429Z,18.10
2022-09-06T00:46:28.563Z,18.00
2022-09-06T00:49:02.558Z,18.10
2022-09-06T00:51:33.958Z,18.10
2022-09-06T00:54:04.237Z,18.10
2022-09-06T00:56:33.982Z,18.20
2022-09-06T00:59:02.721Z,18.10
2022-09-06T01:01:30.904Z,18.20
2022-09-06T01:04:00.806Z,18.10
2022-09-06T01:06:42.022Z,18.20
2022-09-06T01:09:19.111Z,18.00
2022-09-06T01:12:03.349Z,17.90
2022-09-06T01:14:45.385Z,17.90
2022-09-06T01:17:27.049Z,17.90
2022-09-06T01:20:25.250Z,17.90
2022-09-06T01:23:36.251Z,17.90
2022-09-06T01:26:18.557Z,17.90
2022-09-06T01:28:48.473Z,17.80
2022-09-06T01:31:24.863Z,17.80
2022-09-06T01:34:12.542Z,17.80
2022-09-06T01:37:08.295Z,17.80
2022-09-06T01:39:36.731Z,17.70
2022-09-06T01:42:08.581Z,17.70
2022-09-06T01:44:39.714Z,17.70
2022-09-06T01:47:18.534Z,17.70
2022-09-06T01:49:59.532Z,17.70
2022-09-06T01:52:36.112Z,17.70
2022-09-06T01:55:13.207Z,17.60
2022-09-06T01:57:53.375Z,17.60
2022-09-06T02:00:23.766Z,17.60
2022-09-06T02:03:00.914Z,17.50
2022-09-06T02:05:33.319Z,17.60
2022-09-06T02:08:05.830Z,17.50
2022-09-06T02:10:41.201Z,17.50
2022-09-06T02:13:11.193Z,17.50
2022-09-06T02:15:46.546Z,17.40
2022-09-06T02:18:19.218Z,17.40
2022-09-06T02:20:51.916Z,17.40
2022-09-06T02:23:22.933Z,17.40
2022-09-06T02:25:54.626Z,17.40
2022-09-06T02:28:23.690Z,17.40
2022-09-06T02:30:59.102Z,17.30
2022-09-06T02:33:31.361Z,17.30
2022-09-06T02:36:05.543Z,17.30
2022-09-06T02:38:35.446Z,17.30
2022-09-06T02:41:04.365Z,17.30
2022-09-06T02:43:32.282Z,17.30
2022-09-06T02:46:01.672Z,17.30
2022-09-06T02:48:29.961Z,17.20
2022-09-06T02:50:57.931Z,17.20
2022-09-06T02:53:25.814Z,17.30
2022-09-06T02:55:53.726Z,17.20
2022-09-06T02:58:21.624Z,17.20
2022-09-06T03:00:50.818Z,17.20
2022-09-06T03:03:20.188Z,17.10
2022-09-06T03:05:49.752Z,17.20
2022-09-06T03:08:18.913Z,17.20
2022-09-06T03:10:50.326Z,17.20
2022-09-06T03:13:18.517Z,17.20
2022-09-06T03:15:46.491Z,17.10
2022-09-06T03:18:14.828Z,17.10
2022-09-06T03:20:44.073Z,17.10
2022-09-06T03:23:12.109Z,17.20
2022-09-06T03:25:39.987Z,17.30
2022-09-06T03:28:07.854Z,17.20
2022-09-06T03:30:35.789Z,17.20
2022-09-06T03:33:03.744Z,17.20
2022-09-06T03:35:31.695Z,17.20
2022-09-06T03:38:00.898Z,17.20
2022-09-06T03:40:28.867Z,17.20
2022-09-06T03:42:56.742Z,17.20
2022-09-06T03:45:24.657Z,17.20
2022-09-06T03:47:52.546Z,17.20
2022-09-06T03:50:20.442Z,17.30
2022-09-06T03:52:48.311Z,17.30
2022-09-06T03:55:17.693Z,17.30
2022-09-06T03:57:45.558Z,17.30
2022-09-06T04:00:14.927Z,17.30
2022-09-06T04:02:42.922Z,17.30
2022-09-06T04:05:13.266Z,17.30
2022-09-06T04:07:41.145Z,17.30
2022-09-06T04:10:09.745Z,17.30
2022-09-06T04:12:39.019Z,17.30
2022-09-06T04:15:08.006Z,17.30
2022-09-06T04:17:35.886Z,17.30
2022-09-06T04:20:04.732Z,17.30
2022-09-06T04:22:32.641Z,17.40
2022-09-06T04:25:01.410Z,17.40
2022-09-06T04:27:29.278Z,17.40
2022-09-06T04:29:58.552Z,17.40
2022-09-06T04:32:26.474Z,17.40
2022-09-06T04:34:54.355Z,17.30
2022-09-06T04:37:22.285Z,17.40
2022-09-06T04:39:50.540Z,17.40
2022-09-06T04:42:18.548Z,17.30
2022-09-06T04:44:46.432Z,17.50
2022-09-06T04:47:18.175Z,17.50
2022-09-06T04:49:48.213Z,17.40
2022-09-06T04:52:16.445Z,17.30
2022-09-06T04:54:45.029Z,17.40
2022-09-06T04:57:12.909Z,17.40
2022-09-06T04:59:40.838Z,17.30
2022-09-06T05:02:08.762Z,17.40
2022-09-06T05:04:38.051Z,17.40
2022-09-06T05:07:07.628Z,17.40
2022-09-06T05:09:36.793Z,17.40
2022-09-06T05:12:05.177Z,17.30
2022-09-06T05:14:33.289Z,17.30
2022-09-06T05:17:01.273Z,17.30
2022-09-06T05:19:29.141Z,17.30
2022-09-06T05:21:58.422Z,17.30
2022-09-06T05:24:26.380Z,17.30
2022-09-06T05:26:54.282Z,17.30
2022-09-06T05:29:22.149Z,17.50
2022-09-06T05:31:50.057Z,17.20
2022-09-06T05:34:18.085Z,17.20
2022-09-06T05:36:46.237Z,17.20
2022-09-06T05:39:15.521Z,17.20
2022-09-06T05:41:43.414Z,17.20
2022-09-06T05:44:11.297Z,17.20
2022-09-06T05:46:43.591Z,17.30
2022-09-06T05:49:11.324Z,17.20
2022-09-06T05:51:39.278Z,17.40
2022-09-06T05:54:07.841Z,17.30
2022-09-06T05:56:37.116Z,17.30
2022-09-06T05:59:05.990Z,17.20
2022-09-06T06:01:34.009Z,17.20
2022-09-06T06:04:03.577Z,17.20
2022-09-06T06:06:33.648Z,17.20
2022-09-06T06:09:02.103Z,17.30
2022-09-06T06:11:31.973Z,17.30
2022-09-06T06:14:01.354Z,17.30
2022-09-06T06:16:29.282Z,17.30
2022-09-06T06:18:57.555Z,17.40
2022-09-06T06:21:26.818Z,17.40
2022-09-06T06:23:56.264Z,17.30
2022-09-06T06:26:24.654Z,17.40
2022-09-06T06:28:53.345Z,17.40
2022-09-06T06:31:23.901Z,17.40
2022-09-06T06:33:52.090Z,17.50
2022-09-06T06:36:22.581Z,17.50
2022-09-06T06:38:52.268Z,17.50
2022-09-06T06:41:23.866Z,17.60
2022-09-06T06:43:53.325Z,17.50
2022-09-06T06:46:23.952Z,17.60
2022-09-06T06:48:54.850Z,17.60
2022-09-06T06:51:25.963Z,17.70
2022-09-06T06:53:54.159Z,17.70
2022-09-06T06:56:24.080Z,17.80
2022-09-06T06:58:53.376Z,17.90
2022-09-06T07:01:23.773Z,17.90
2022-09-06T07:03:51.927Z,18.00
2022-09-06T07:06:21.446Z,18.00
2022-09-06T07:08:49.877Z,18.10
2022-09-06T07:11:21.605Z,18.20
2022-09-06T07:13:52.353Z,18.20
2022-09-06T07:16:23.429Z,18.30
2022-09-06T07:18:53.103Z,18.40
2022-09-06T07:21:41.672Z,18.50
2022-09-06T07:24:10.254Z,18.40
2022-09-06T07:26:40.622Z,18.50
2022-09-06T07:29:09.310Z,18.50
2022-09-06T07:34:27.854Z,18.60
2022-09-06T07:36:56.572Z,18.60
2022-09-06T07:39:24.591Z,18.70
2022-09-06T07:41:52.490Z,18.80
2022-09-06T07:44:20.397Z,18.90
2022-09-06T07:46:50.049Z,19.00
2022-09-06T07:49:17.985Z,19.00
2022-09-06T07:51:45.918Z,19.10
2022-09-06T07:54:29.895Z,19.20
2022-09-06T07:56:58.155Z,19.30
2022-09-06T07:59:27.492Z,19.30
2022-09-06T08:01:56.831Z,19.40
2022-09-06T08:04:24.817Z,19.50
2022-09-06T08:09:41.497Z,19.50
2022-09-06T08:12:09.876Z,19.80
2022-09-06T08:14:37.788Z,19.70
2022-09-06T08:17:07.101Z,19.70
2022-09-06T08:19:35.537Z,19.70
2022-09-06T08:22:03.550Z,19.70
2022-09-06T08:24:31.739Z,19.80
2022-09-06T08:26:59.641Z,19.70
2022-09-06T08:29:27.945Z,19.80
2022-09-06T08:31:55.906Z,19.90
2022-09-06T08:34:25.181Z,19.90
2022-09-06T08:36:53.122Z,20.00
2022-09-06T08:39:21.004Z,19.90
2022-09-06T08:41:53.737Z,20.00
2022-09-06T08:47:14.432Z,20.10
2022-09-06T08:49:46.138Z,20.20
2022-09-06T08:52:23.668Z,20.30
2022-09-06T08:54:59.813Z,20.30
2022-09-06T08:57:41.420Z,20.30
2022-09-06T09:00:12.284Z,20.30
2022-09-06T09:02:45.854Z,20.50
2022-09-06T09:05:28.913Z,20.50
2022-09-06T09:08:06.477Z,20.60
2022-09-06T09:10:42.772Z,20.70
2022-09-06T09:13:18.394Z,20.70
2022-09-06T09:15:46.354Z,20.80
2022-09-06T09:18:17.961Z,21.00
2022-09-06T09:20:47.234Z,20.90
2022-09-06T09:23:15.234Z,21.10
2022-09-06T09:25:46.481Z,21.10
2022-09-06T09:28:18.664Z,21.20
2022-09-06T09:30:49.127Z,21.30
2022-09-06T09:33:26.677Z,21.30
2022-09-06T09:35:56.834Z,21.30
2022-09-06T09:38:27.612Z,21.20
2022-09-06T09:40:57.286Z,21.30
2022-09-06T09:43:26.712Z,21.40
2022-09-06T09:46:16.715Z,21.40
2022-09-06T09:49:00.865Z,21.50
2022-09-06T09:51:31.223Z,21.60
2022-09-06T09:54:00.965Z,21.60
2022-09-06T09:56:48.397Z,21.60
2022-09-06T09:59:26.007Z,21.90
2022-09-06T10:01:56.915Z,21.90
2022-09-06T10:04:46.999Z,22.00
2022-09-06T10:07:18.641Z,22.10
2022-09-06T10:09:48.818Z,22.20
2022-09-06T10:12:29.074Z,22.30
2022-09-06T10:14:57.750Z,22.30
2022-09-06T10:17:31.950Z,22.10
2022-09-06T10:20:04.806Z,22.40
2022-09-06T10:22:44.165Z,22.60
2022-09-06T10:25:48.966Z,22.60
2022-09-06T10:28:32.386Z,22.70
2022-09-06T10:31:26.970Z,22.90
2022-09-06T10:34:04.357Z,22.80
2022-09-06T10:36:36.526Z,22.90
2022-09-06T10:39:10.205Z,22.90
2022-09-06T10:41:54.642Z,22.90
2022-09-06T10:44:36.506Z,23.00
2022-09-06T10:47:11.333Z,23.10
2022-09-06T10:49:41.886Z,23.20
2022-09-06T10:52:14.590Z,23.20
2022-09-06T10:54:47.199Z,23.30
2022-09-06T11:00:13.530Z,23.60
2022-09-06T11:02:47.344Z,23.70
2022-09-06T11:11:07.247Z,24.00
2022-09-06T11:13:35.179Z,24.00
2022-09-06T11:16:09.618Z,24.10
2022-09-06T11:18:43.738Z,24.40
2022-09-06T11:21:47.174Z,24.40
2022-09-06T11:24:16.299Z,24.50
2022-09-06T11:26:47.019Z,24.50
2022-09-06T11:29:22.253Z,24.60
2022-09-06T11:34:54.702Z,24.90
2022-09-06T11:37:28.140Z,24.90
2022-09-06T11:43:17.324Z,25.10
2022-09-06T11:45:48.407Z,25.10
2022-09-06T11:48:49.616Z,25.00
2022-09-06T11:51:34.943Z,25.00
2022-09-06T11:54:22.855Z,25.20
2022-09-06T11:56:58.230Z,25.30
2022-09-06T11:59:37.953Z,25.50
2022-09-06T12:02:07.787Z,25.60
2022-09-06T12:05:11.948Z,25.60
2022-09-06T12:08:01.827Z,25.60
2022-09-06T12:10:58.170Z,25.80
2022-09-06T12:14:03.275Z,26.00
2022-09-06T12:17:31.243Z,26.20
2022-09-06T12:20:07.194Z,26.40
2022-09-06T12:23:05.316Z,26.50
2022-09-06T12:26:03.747Z,26.50
2022-09-06T12:28:39.081Z,26.50
2022-09-06T12:31:33.767Z,26.90
2022-09-06T12:34:08.782Z,26.90
2022-09-06T12:36:49.268Z,26.90
2022-09-06T12:39:17.472Z,27.20
2022-09-06T12:41:49.184Z,27.40
2022-09-06T12:44:19.176Z,27.50
2022-09-06T12:46:49.579Z,27.50
2022-09-06T12:49:21.175Z,27.50
2022-09-06T12:51:51.222Z,27.40
2022-09-06T12:54:22.932Z,27.50
2022-09-06T12:56:51.736Z,27.50
2022-09-06T12:59:22.176Z,27.80
2022-09-06T13:01:58.697Z,28.10
2022-09-06T13:04:33.898Z,28.30
2022-09-06T13:07:05.849Z,28.00
2022-09-06T13:09:34.319Z,27.90
2022-09-06T13:12:07.362Z,28.00
2022-09-06T13:14:35.953Z,28.30
2022-09-06T13:17:03.926Z,28.20
2022-09-06T13:19:34.650Z,28.40
2022-09-06T13:22:07.435Z,28.50
2022-09-06T13:24:47.337Z,28.50
2022-09-06T13:27:26.940Z,28.50
2022-09-06T13:29:59.325Z,28.90
2022-09-06T13:32:28.438Z,28.90
2022-09-06T13:34:57.969Z,28.90
2022-09-06T13:37:28.846Z,28.70
2022-09-06T13:39:58.706Z,28.40
2022-09-06T13:42:29.557Z,28.70
2022-09-06T13:45:01.959Z,28.70
2022-09-06T13:47:31.199Z,28.50
2022-09-06T13:49:59.083Z,28.70
2022-09-06T13:52:28.731Z,28.70
2022-09-06T13:54:56.617Z,29.10
2022-09-06T13:57:24.859Z,29.50
2022-09-06T13:59:53.189Z,29.60
2022-09-06T14:02:21.412Z,29.70
2022-09-06T14:04:49.644Z,29.80
2022-09-06T14:07:17.727Z,30.00
2022-09-06T14:09:47.790Z,30.40
2022-09-06T14:12:15.661Z,30.90
2022-09-06T14:14:44.573Z,30.90
2022-09-06T14:17:12.442Z,31.20
2022-09-06T14:19:40.598Z,30.90
2022-09-06T14:22:08.510Z,31.30
2022-09-06T14:24:36.467Z,31.60
2022-09-06T14:27:07.157Z,31.80
2022-09-06T14:29:35.665Z,31.80
2022-09-06T14:32:03.981Z,32.00
2022-09-06T14:34:32.459Z,32.20
2022-09-06T14:37:00.362Z,32.60
2022-09-06T14:39:28.423Z,32.50
2022-09-06T14:41:56.397Z,32.60
2022-09-06T14:44:25.968Z,32.60
2022-09-06T14:46:54.643Z,32.80
2022-09-06T14:49:22.707Z,32.70
2022-09-06T14:51:50.629Z,32.50
2022-09-06T14:54:20.163Z,32.30
2022-09-06T14:56:48.076Z,32.30
2022-09-06T14:59:17.157Z,32.30
2022-09-06T15:01:46.429Z,32.20
2022-09-06T15:04:14.353Z,32.50
2022-09-06T15:06:46.958Z,32.50
2022-09-06T15:09:15.163Z,32.30
2022-09-06T15:11:45.257Z,32.30
2022-09-06T15:14:16.229Z,32.00
2022-09-06T15:16:44.685Z,31.70
2022-09-06T15:19:14.276Z,31.70
2022-09-06T15:21:42.302Z,31.40
2022-09-06T15:24:12.174Z,30.90
2022-09-06T15:26:40.956Z,30.50
2022-09-06T15:29:09.266Z,30.60
2022-09-06T15:31:38.463Z,30.70
2022-09-06T15:34:06.664Z,30.50
2022-09-06T15:36:36.005Z,30.70
2022-09-06T15:39:05.688Z,30.80
2022-09-06T15:41:36.452Z,31.00
2022-09-06T15:44:09.866Z,31.30
2022-09-06T15:46:48.041Z,30.70
2022-09-06T15:49:19.046Z,30.80
2022-09-06T15:51:48.506Z,30.60
2022-09-06T15:54:18.282Z,30.70
2022-09-06T15:56:45.284Z,30.50
2022-09-06T15:59:13.934Z,30.50
2022-09-06T16:01:42.032Z,30.40
2022-09-06T16:04:10.047Z,30.10
2022-09-06T16:06:42.045Z,30.10
2022-09-06T16:09:14.040Z,29.90
2022-09-06T16:11:42.658Z,29.40
2022-09-06T16:14:13.740Z,29.20
2022-09-06T16:16:42.401Z,29.10
2022-09-06T16:19:11.530Z,29.10
2022-09-06T16:21:40.824Z,29.00
2022-09-06T16:24:11.633Z,28.90
2022-09-06T16:26:41.761Z,28.60
2022-09-06T16:29:11.920Z,28.40
2022-09-06T16:31:40.919Z,28.40
2022-09-06T16:34:09.561Z,28.20
2022-09-06T16:36:38.084Z,28.10
2022-09-06T16:39:06.557Z,28.10
2022-09-06T16:41:39.996Z,27.90
2022-09-06T16:44:08.169Z,27.90
2022-09-06T16:46:36.126Z,27.60
2022-09-06T16:49:04.559Z,27.60
2022-09-06T16:51:33.005Z,27.60
2022-09-06T16:54:01.540Z,27.50
2022-09-06T16:56:33.173Z,27.50
2022-09-06T16:59:04.956Z,27.40
2022-09-06T17:01:33.220Z,27.10
2022-09-06T17:04:02.227Z,27.10
2022-09-06T17:06:31.067Z,27.00
2022-09-06T17:08:59.524Z,26.90
2022-09-06T17:11:28.898Z,26.80
2022-09-06T17:13:57.737Z,26.80
2022-09-06T17:16:44.571Z,26.70
2022-09-06T17:19:13.924Z,26.60
2022-09-06T17:21:42.325Z,26.50
2022-09-06T17:24:10.642Z,26.40
2022-09-06T17:26:40.195Z,26.30
2022-09-06T17:29:09.013Z,26.20
2022-09-06T17:31:38.938Z,26.10
2022-09-06T17:34:07.748Z,26.00
2022-09-06T17:36:36.646Z,25.90
2022-09-06T17:39:06.313Z,25.80
2022-09-06T17:41:37.653Z,25.70
2022-09-06T17:44:05.873Z,25.60
2022-09-06T17:46:33.858Z,25.50
2022-09-06T17:49:05.010Z,25.40
2022-09-06T17:51:33.589Z,25.30
2022-09-06T17:54:01.727Z,25.20
2022-09-06T17:56:30.470Z,25.10
2022-09-06T17:59:00.250Z,25.10
2022-09-06T18:01:30.449Z,25.00
2022-09-06T18:03:59.395Z,24.90
2022-09-06T18:06:30.965Z,24.80
2022-09-06T18:09:04.788Z,24.90
2022-09-06T18:11:34.293Z,24.70
2022-09-06T18:14:04.738Z,24.60
2022-09-06T18:16:34.660Z,24.50
2022-09-06T18:19:05.415Z,24.50
2022-09-06T18:21:36.720Z,24.30
2022-09-06T18:24:05.842Z,24.30
2022-09-06T18:26:34.132Z,24.30
2022-09-06T18:29:02.143Z,24.20
2022-09-06T18:31:30.125Z,24.30
2022-09-06T18:33:58.881Z,24.10
2022-09-06T18:36:32.060Z,24.20
2022-09-06T18:39:04.957Z,24.00
2022-09-06T18:41:51.069Z,24.00
2022-09-06T18:44:19.275Z,23.90
2022-09-06T18:46:47.990Z,23.80
2022-09-06T18:49:16.352Z,23.70
2022-09-06T18:51:45.495Z,23.60
2022-09-06T18:54:15.347Z,23.60
2022-09-06T18:56:44.706Z,23.60
2022-09-06T18:59:13.628Z,23.50
2022-09-06T19:01:43.018Z,23.50
2022-09-06T19:04:11.737Z,23.40
2022-09-06T19:06:42.182Z,23.30
2022-09-06T19:09:12.435Z,23.10
2022-09-06T19:11:43.442Z,23.20
2022-09-06T19:14:12.888Z,23.30
2022-09-06T19:16:42.155Z,23.10
2022-09-06T19:19:12.020Z,23.10
2022-09-06T19:21:42.317Z,23.00
2022-09-06T19:24:12.373Z,23.00
2022-09-06T19:26:44.273Z,23.00
2022-09-06T19:29:17.430Z,22.90
2022-09-06T19:31:47.013Z,22.90
2022-09-06T19:34:15.585Z,22.90
2022-09-06T19:36:47.012Z,22.80
2022-09-06T19:39:17.007Z,22.80
2022-09-06T19:41:47.740Z,22.70
2022-09-06T19:44:17.070Z,22.70
2022-09-06T19:46:46.781Z,22.50
2022-09-06T19:49:15.907Z,22.60
2022-09-06T19:51:45.287Z,22.60
2022-09-06T19:54:14.187Z,22.60
2022-09-06T19:56:43.664Z,22.60
2022-09-06T19:59:14.128Z,22.40
2022-09-06T20:01:44.053Z,22.50
2022-09-06T20:04:13.247Z,22.40
2022-09-06T20:06:41.410Z,22.40
2022-09-06T20:09:11.178Z,22.30
2022-09-06T20:11:40.495Z,22.20
2022-09-06T20:14:09.038Z,22.20
2022-09-06T20:16:41.789Z,22.40
2022-09-06T20:19:11.023Z,22.20
2022-09-06T20:21:38.894Z,22.10
2022-09-06T20:24:07.186Z,22.20
2022-09-06T20:26:35.231Z,22.10
2022-09-06T20:29:04.643Z,22.10
2022-09-06T20:31:33.400Z,22.20
2022-09-06T20:34:04.274Z,21.90
2022-09-06T20:36:32.285Z,21.90
2022-09-06T20:39:00.131Z,21.90
2022-09-06T20:41:28.663Z,21.90
2022-09-06T20:43:57.765Z,21.80
2022-09-06T20:46:27.743Z,21.80
2022-09-06T20:48:57.845Z,21.70
2022-09-06T20:51:27.322Z,21.60
2022-09-06T20:53:56.956Z,21.50
2022-09-06T20:56:26.850Z,21.40
2022-09-06T20:58:56.675Z,21.20
2022-09-06T21:01:26.366Z,21.10
2022-09-06T21:03:55.869Z,21.00
2022-09-06T21:06:24.920Z,21.00
2022-09-06T21:08:54.608Z,21.00
2022-09-06T21:11:22.523Z,20.90
2022-09-06T21:13:51.403Z,20.70
2022-09-06T21:16:23.933Z,20.80
2022-09-06T21:18:52.707Z,20.70
2022-09-06T21:21:20.644Z,20.60
2022-09-06T21:23:48.778Z,20.50
2022-09-06T21:26:18.234Z,20.40
2022-09-06T21:28:47.356Z,20.20
2022-09-06T21:31:17.273Z,20.10
2022-09-06T21:33:47.285Z,20.10
2022-09-06T21:36:16.748Z,20.00
2022-09-06T21:38:46.274Z,20.00
2022-09-06T21:41:15.780Z,20.00
2022-09-06T21:43:45.476Z,20.00
2022-09-06T21:46:15.306Z,20.00
2022-09-06T21:48:44.740Z,20.00
2022-09-06T21:51:14.586Z,19.90
2022-09-06T21:53:43.795Z,19.90
2022-09-06T21:56:12.850Z,19.90
2022-09-06T21:58:41.035Z,19.80
2022-09-06T22:01:10.234Z,19.70
2022-09-06T22:03:40.157Z,19.60
2022-09-06T22:06:12.640Z,19.60
2022-09-06T22:08:42.066Z,19.60
2022-09-06T22:11:11.512Z,19.50
2022-09-06T22:13:39.780Z,19.40
2022-09-06T22:16:08.337Z,19.40
2022-09-06T22:18:38.326Z,19.40
2022-09-06T22:21:08.874Z,19.10
2022-09-06T22:23:37.431Z,19.20
2022-09-06T22:26:07.043Z,19.10
2022-09-06T22:28:35.467Z,19.10
2022-09-06T22:31:03.743Z,19.20
2022-09-06T22:33:31.831Z,19.10
2022-09-06T22:36:01.118Z,19.10
2022-09-06T22:38:29.956Z,19.00
2022-09-06T22:40:58.554Z,19.10
2022-09-06T22:43:27.105Z,19.10
2022-09-06T22:45:55.249Z,19.00
2022-09-06T22:48:23.237Z,19.00
2022-09-06T22:50:51.208Z,18.90
2022-09-06T22:53:20.891Z,19.00
2022-09-06T22:55:49.025Z,18.90
2022-09-06T22:58:16.934Z,19.00
2022-09-06T23:00:44.939Z,19.00
2022-09-06T23:03:12.938Z,18.90
2022-09-06T23:05:40.934Z,18.90
2022-09-06T23:08:08.871Z,18.80
2022-09-06T23:10:43.312Z,19.00
2022-09-06T23:13:12.077Z,19.00
2022-09-06T23:15:41.822Z,19.00
2022-09-06T23:18:09.846Z,19.10
2022-09-06T23:20:38.040Z,19.00
2022-09-06T23:23:06.199Z,18.90
2022-09-06T23:25:37.822Z,19.00
2022-09-06T23:28:07.377Z,18.90
2022-09-06T23:30:38.678Z,18.70
2022-09-06T23:33:06.874Z,18.80
2022-09-06T23:35:34.767Z,18.80
2022-09-06T23:38:02.657Z,18.80
2022-09-06T23:40:30.595Z,18.90
2022-09-06T23:42:58.443Z,18.80
2022-09-06T23:45:27.794Z,18.80
2022-09-06T23:47:55.706Z,18.80
2022-09-06T23:50:23.614Z,18.70
2022-09-06T23:52:51.514Z,18.70
2022-09-06T23:55:19.396Z,18.80
2022-09-06T23:57:47.268Z,18.70
